Station: Snowtown  

  Atmospheric Gas Attenuation - ITU Rec 676-11   ----------------- dB/100km -----------------
Date Time Temp RH % AH g/m3 Dew Point Wind Direction Speed kph Gust kph Barometer mB Rainfall Since 9am 24GHz 47GHz 76GHz 122GHz 134GHz 241GHz
02/09 17:50 11.1 85 8.56 8.7 9 11 1013.1 0 19.6 26.6 41.0 107.7 101.3 348.4
02/09 17:40 12.1 79 8.47 8.6 11 17 1013.1 0 19.4 26.2 40.1 105.3 98.8 339.7
02/09 17:30 12.4 78 8.52 8.7 13 17 1015.9 0 19.5 26.3 40.3 105.7 99.3 341.6
02/09 17:20 13.2 73 8.38 8.5 13 19 1013.1 0 19.1 25.7 39.2 102.9 96.2 330.8
02/09 17:10 13.7 74 8.76 9.2 13 17 1013.1 0 19.9 26.2 40.5 106.3 100.6 346.3
02/09 17:00 13.9 73 8.75 9.1 13 17 1015.6 0 19.9 26.2 40.5 106.2 100.5 345.7
02/09 16:50 14.3 74 9.09 9.7 15 20 1013.1 0 20.6 26.5 41.5 109.0 104.2 359.0
02/09 16:40 14.4 71 8.78 9.2 15 19 1013.1 0 19.9 26.0 40.2 105.6 100.0 344.2
02/09 16:30 14.4 71 8.78 9.2 17 20 1015.5 0 19.9 26.1 40.3 105.8 100.2 344.8
02/09 16:20 14.6 70 8.76 9.2 19 24 1013.1 0 19.9 25.9 40.0 105.1 99.5 342.4
02/09 16:10 15.2 68 8.83 9.3 19 24 1013.1 0 20.0 25.9 40.0 105.0 99.6 343.0
02/09 16:00 14.6 71 8.88 9.4 17 24 1015.6 0 20.1 26.2 40.6 106.6 101.3 348.6
02/09 15:50 15 70 8.98 9.6 19 24 1013.1 0 20.3 26.2 40.7 106.9 101.9 350.7
02/09 15:36 15.2 68 8.83 9.3 17 19 1013.1 0 20.0 25.9 40.0 105.0 99.6 343.0
02/09 15:30 15.1 71 9.16 9.9 17 22 1015.7 0 20.7 26.5 41.5 109.0 104.3 359.4
02/09 15:20 15.2 69 8.96 9.6 17 20 1013.1 0 20.3 26.1 40.5 106.4 101.3 348.9
02/09 15:10 15.8 65 8.75 9.2 17 22 1013.1 0 19.8 25.6 39.4 103.4 97.8 336.7
02/09 15:00 15.7 65 8.7 9.1 15 20 1015.7 0 19.7 25.6 39.4 103.3 97.5 335.6
02/09 14:50 16 70 9.54 10.5 19 24 1013.1 0 21.5 26.8 42.4 111.5 107.9 372.0
02/09 14:40 16.1 68 9.32 10.2 17 24 1013.1 0 21.0 26.4 41.5 109.0 104.9 361.4
02/09 14:30 16.2 65 8.96 9.6 17 20 1015.6 0 20.2 25.9 40.1 105.3 100.2 345.2
02/09 14:20 16.5 67 9.41 10.4 17 24 1013.1 0 21.2 26.4 41.6 109.4 105.5 363.7
02/09 14:10 16.2 69 9.51 10.5 17 22 1013.1 0 21.4 26.7 42.2 110.9 107.2 369.7
02/09 14:00 16.1 71 9.73 10.8 17 24 1015.7 0 21.9 27.1 43.3 113.7 110.5 381.2
02/09 13:50 16.3 70 9.71 10.8 15 24 1013.1 0 21.8 26.9 43.0 112.9 109.7 378.5
02/09 13:37 15.9 70 9.48 10.4 19 20 1013.1 0 21.4 26.7 42.2 111.0 107.2 369.7
02/09 13:30 15.6 75 9.97 11.2 17 28 1016 0 22.4 27.7 44.5 117.1 114.5 395.0
02/09 13:20 15.1 73 9.42 10.3 17 20 1013.1 0 21.3 26.8 42.4 111.5 107.6 370.7
02/09 13:10 15 74 9.49 10.4 15 19 1013.1 0 21.4 27.0 42.8 112.4 108.6 374.5
02/09 13:00 15 72 9.23 10 13 20 1016.4 0 20.9 26.7 41.9 109.9 105.4 363.3
02/09 12:50 15.1 77 9.93 11.1 15 20 1013.1 0 22.4 27.7 44.5 117.1 114.4 394.7
02/09 12:36 15.3 76 9.92 11.1 11 13 1013.1 0 22.3 27.6 44.4 116.7 114.0 393.3
02/09 12:30 15.1 76 9.8 10.9 11 17 1016.8 0 22.1 27.6 44.2 116.1 113.0 389.7
02/09 12:20 15.1 76 9.8 10.9 11 15 1013.1 0 22.1 27.5 44.0 115.6 112.7 388.6
02/09 12:10 15.2 78 10.12 11.4 19 22 1013.1 0 22.8 28.0 45.3 119.0 116.9 403.3
02/09 12:00 15 78 10 11.2 13 19 1017.2 0 22.5 28.0 45.1 118.5 115.9 399.9
02/09 11:50 15.1 74 9.55 10.5 11 15 1013.1 0 21.6 27.1 43.0 112.9 109.3 376.8
02/09 11:40 14.7 77 9.69 10.7 13 17 1013.1 0 21.9 27.4 43.8 115.0 111.8 385.3
02/09 11:30 14.5 78 9.7 10.7 13 17 1017.5 0 21.9 27.7 44.1 115.9 112.6 388.2
02/09 11:20 14.6 78 9.76 10.8 11 19 1013.1 0 22.0 27.6 44.1 115.9 112.9 389.2
02/09 11:10 14.2 79 9.65 10.6 13 17 1013.1 0 21.8 27.5 43.9 115.3 111.9 385.9
02/09 11:00 14.2 79 9.65 10.6 11 17 1017.7 0 21.8 27.7 44.1 115.8 112.4 387.3
02/09 10:50 14.2 81 9.89 11 13 17 1013.1 0 22.3 27.9 44.9 118.0 115.2 397.4
02/09 10:40 14 80 9.65 10.6 13 19 1013.1 0 21.8 27.6 44.0 115.6 112.2 386.9
02/09 10:30 13.8 81 9.65 10.6 13 19 1017.7 0 21.8 27.8 44.3 116.4 112.9 389.3
02/09 10:20 13.8 86 10.25 11.5 13 19 1013.1 0 23.1 28.6 46.6 122.7 120.8 417.0
02/09 10:10 13.8 86 10.25 11.5 15 17 1013.1 0 23.1 28.6 46.6 122.7 120.8 417.0
02/09 10:00 13.4 87 10.11 11.3 17 20 1018 0 22.8 28.7 46.5 122.3 120.0 413.9
02/09 09:50 13.4 88 10.23 11.5 15 20 1013.1 0 23.1 28.7 46.8 123.1 121.2 418.2
02/09 09:40 13.6 89 10.47 11.8 15 20 1013.1 0 23.6 29.1 47.7 125.5 124.3 428.9
02/09 09:30 13.3 90 10.4 11.7 15 17 1013.1 0 23.5 29.1 47.6 125.2 123.8 427.1
02/09 09:20 12.7 89 9.91 10.9 15 19 1013.1 0 22.5 28.4 45.8 120.5 117.8 406.2
02/09 09:10 12.9 90 10.14 11.3 11 19 1013.1 0 22.9 28.7 46.7 122.8 120.7 416.4
02/09 09:00 13.1 94 10.73 12.2 6 9 1018.5 0 24.2 29.9 49.4 130.0 129.4 446.6
02/09 08:50 13 94 10.66 12.1 6 6 1013.1 0.4 24.1 29.6 48.9 128.7 128.0 441.8
02/09 08:40 13 95 10.77 12.2 0 0 1013.1 0.4 24.3 29.8 49.4 130.0 129.5 447.3
02/09 08:30 12.8 96 10.75 12.2 0 0 1018.9 0.4 24.2 30.1 49.7 130.8 130.2 449.5
02/09 08:20 12.6 96 10.62 12 0 0 1013.1 0.4 24.0 29.7 49.0 128.9 128.1 442.0
02/09 08:10 12.4 97 10.6 11.9 0 4 1013.1 0.4 24.0 29.7 49.0 129.0 128.1 442.2
02/09 08:00 12.3 97 10.53 11.8 2 6 1018.7 0.4 23.8 29.9 49.0 129.0 127.8 441.1
02/09 07:50 12.2 97 10.47 11.7 6 6 1013.1 0.4 23.7 29.6 48.6 127.8 126.6 436.8
02/09 07:40 12.1 98 10.51 11.8 6 6 1013.1 0.4 23.8 29.7 48.8 128.4 127.3 439.4
02/09 07:30 11.8 97 10.21 11.3 6 7 1018.5 0.4 23.1 29.5 47.9 126.1 124.0 427.7
02/09 07:20 11.8 97 10.21 11.3 7 11 1013.1 0.4 23.2 29.2 47.7 125.4 123.5 425.9
02/09 07:10 11.7 98 10.25 11.4 7 9 1013.1 0.4 23.2 29.3 47.9 126.0 124.2 428.5
02/09 07:00 11.6 97 10.08 11.1 9 11 1018.2 0.4 22.9 29.3 47.5 124.8 122.4 422.2
02/09 06:50 11.5 98 10.12 11.2 6 11 1013.1 0.4 23.0 29.2 47.4 124.8 122.7 423.1
02/09 06:40 11.2 98 9.94 10.9 7 7 1013.1 0.4 22.6 29.0 46.8 123.2 120.6 415.6
02/09 06:30 11.1 98 9.87 10.8 7 9 1018 0.4 22.5 29.1 46.8 123.1 120.2 414.3
02/09 06:20 10.9 98 9.75 10.6 9 13 1013.1 0.4 22.2 28.7 46.2 121.5 118.3 407.7
02/09 06:10 10.8 98 9.69 10.5 11 13 1013.1 0.4 22.1 28.7 46.0 120.9 117.6 405.2
02/09 06:00 10.8 97 9.59 10.3 7 9 1017.5 0.4 21.9 28.7 45.8 120.3 116.6 401.6
02/09 05:50 10.9 98 9.75 10.6 0 2 1013.1 0.4 22.2 28.7 46.2 121.5 118.3 407.7
02/09 05:40 10.8 97 9.59 10.3 4 6 1013.1 0.4 21.9 28.5 45.6 119.8 116.2 400.2
02/09 05:30 10.8 98 9.69 10.5 4 7 1017.4 0.4 22.1 28.8 46.2 121.4 118.0 406.6
02/09 05:20 10.5 97 9.41 10 0 0 1013.1 0.4 21.5 28.3 44.9 118.2 114.1 392.8
02/09 05:10 10.3 97 9.29 9.8 0 0 1013.1 0.4 21.3 28.1 44.5 117.1 112.6 387.9
02/09 05:00 10.3 97 9.29 9.8 7 9 1017.3 0.4 21.2 28.3 44.7 117.6 113.0 389.2
02/09 04:50 10.5 98 9.51 10.2 7 11 1013.1 0.4 21.7 28.4 45.4 119.3 115.5 397.8
02/09 04:40 10.2 98 9.33 9.9 0 0 1013.1 0.4 21.3 28.2 44.8 117.7 113.4 390.4
02/09 04:30 10.1 98 9.27 9.8 0 0 1017.2 0.4 21.2 28.3 44.8 117.6 113.0 389.1
02/09 04:20 10 98 9.21 9.7 0 0 1013.1 0.4 21.1 28.1 44.4 116.6 112.0 385.4
02/09 04:10 9.8 97 9 9.3 6 9 1013.1 0.4 20.6 27.8 43.6 114.5 109.3 375.9
02/09 04:00 9.8 97 9 9.3 6 7 1017.3 0.4 20.6 27.9 43.8 115.0 109.6 377.2
02/09 03:50 9.7 97 8.94 9.2 6 7 1013.1 0.4 20.5 27.7 43.4 113.9 108.6 373.5
02/09 03:40 9.7 97 8.94 9.2 0 0 1013.1 0.4 20.5 27.7 43.4 113.9 108.6 373.5
02/09 03:30 9.6 97 8.89 9.1 0 0 1017.1 0.4 20.4 27.8 43.4 114.0 108.3 372.7
02/09 03:20 9.7 97 8.94 9.2 0 0 1013.1 0.4 20.5 27.7 43.4 113.9 108.6 373.5
02/09 03:10 10 98 9.21 9.7 7 7 1013.1 0.4 21.1 28.1 44.4 116.6 112.0 385.4
02/09 03:00 9.9 98 9.15 9.6 4 6 1017.2 0.4 21.0 28.2 44.4 116.5 111.6 384.1
02/09 02:50 9.8 98 9.09 9.5 6 7 1013.1 0.4 20.8 27.9 44.0 115.5 110.5 380.4
02/09 02:40 9.5 98 8.92 9.2 11 13 1013.1 0.4 20.5 27.7 43.4 114.0 108.6 373.4
02/09 02:30 9 98 8.64 8.7 9 13 1017.6 0.4 19.9 27.6 42.7 112.0 105.7 363.3
02/09 02:20 8.7 97 8.39 8.3 9 11 1013.1 0.4 19.4 27.1 41.6 109.1 102.2 351.0
02/09 02:10 8.9 97 8.5 8.5 11 11 1013.1 0.4 19.6 27.2 41.9 110.1 103.4 355.5
02/09 02:00 9 98 8.64 8.7 9 13 1017.7 0.4 19.9 27.6 42.7 112.0 105.7 363.3
02/09 01:50 8.8 98 8.53 8.5 9 9 1013.1 0.4 19.7 27.3 42.1 110.5 104.0 357.4
02/09 01:40 8.3 97 8.18 7.9 11 13 1013.1 0.4 19.0 26.8 40.9 107.2 99.7 342.5
02/09 01:30 8.4 98 8.32 8.1 11 13 1017.9 0.4 19.2 27.2 41.6 109.2 102.0 350.3
02/09 01:20 8 97 8.02 7.6 11 11 1013.1 0.4 18.6 26.6 40.3 105.8 97.9 335.9

Last Refresh: 02-Sep-2026 17:54:34

Bureau of Meteorology